sensor_id;sensor_type;location;lat;lon;timestamp;P1;P2;P0
65973;PMS5003;52729;54.906;73.316;2022-10-16T00:01:11;26.50;24.00;15.00
65973;PMS5003;52729;54.906;73.316;2022-10-16T00:04:12;27.25;24.00;14.00
65973;PMS5003;52729;54.906;73.316;2022-10-16T00:07:13;27.25;22.00;13.25
65973;PMS5003;52729;54.906;73.316;2022-10-16T00:10:14;24.50;20.00;14.00
65973;PMS5003;52729;54.906;73.316;2022-10-16T00:13:16;28.50;24.25;14.00
65973;PMS5003;52729;54.906;73.316;2022-10-16T00:16:19;27.50;24.50;13.50
65973;PMS5003;52729;54.906;73.316;2022-10-16T00:19:20;28.75;26.50;17.00
65973;PMS5003;52729;54.906;73.316;2022-10-16T00:22:21;26.33;23.00;16.00
65973;PMS5003;52729;54.906;73.316;2022-10-16T00:25:21;24.33;22.00;15.00
65973;PMS5003;52729;54.906;73.316;2022-10-16T00:28:33;28.00;23.50;16.00
65973;PMS5003;52729;54.906;73.316;2022-10-16T00:31:34;28.25;25.25;15.50
65973;PMS5003;52729;54.906;73.316;2022-10-16T00:34:45;25.75;23.50;15.00
65973;PMS5003;52729;54.906;73.316;2022-10-16T00:37:51;29.00;23.50;15.00
65973;PMS5003;52729;54.906;73.316;2022-10-16T00:40:52;24.00;21.00;13.67
65973;PMS5003;52729;54.906;73.316;2022-10-16T00:43:55;26.25;22.00;13.00
65973;PMS5003;52729;54.906;73.316;2022-10-16T00:46:56;25.25;22.00;13.00
65973;PMS5003;52729;54.906;73.316;2022-10-16T00:50:08;24.00;21.33;13.00
65973;PMS5003;52729;54.906;73.316;2022-10-16T00:53:15;24.00;23.00;13.00
65973;PMS5003;52729;54.906;73.316;2022-10-16T00:56:17;22.75;21.00;13.00
65973;PMS5003;52729;54.906;73.316;2022-10-16T00:59:28;22.50;22.25;13.00
65973;PMS5003;52729;54.906;73.316;2022-10-16T01:02:30;23.50;21.00;14.00
65973;PMS5003;52729;54.906;73.316;2022-10-16T01:05:45;24.25;23.00;13.00
65973;PMS5003;52729;54.906;73.316;2022-10-16T01:08:57;26.50;23.50;13.00
65973;PMS5003;52729;54.906;73.316;2022-10-16T01:15:09;23.00;21.67;13.67
65973;PMS5003;52729;54.906;73.316;2022-10-16T01:18:16;22.00;20.00;12.00
65973;PMS5003;52729;54.906;73.316;2022-10-16T01:21:22;23.50;20.25;12.00
65973;PMS5003;52729;54.906;73.316;2022-10-16T01:27:34;26.00;21.00;14.50
65973;PMS5003;52729;54.906;73.316;2022-10-16T01:30:36;24.50;21.25;13.25
65973;PMS5003;52729;54.906;73.316;2022-10-16T01:33:44;24.00;21.00;14.00
65973;PMS5003;52729;54.906;73.316;2022-10-16T01:36:52;22.00;21.00;11.00
65973;PMS5003;52729;54.906;73.316;2022-10-16T01:39:55;23.75;20.75;10.00
65973;PMS5003;52729;54.906;73.316;2022-10-16T01:43:00;24.50;21.00;9.75
65973;PMS5003;52729;54.906;73.316;2022-10-16T01:46:03;19.75;19.00;9.50
65973;PMS5003;52729;54.906;73.316;2022-10-16T01:49:04;21.50;18.50;10.00
65973;PMS5003;52729;54.906;73.316;2022-10-16T01:52:08;20.75;18.50;9.00
65973;PMS5003;52729;54.906;73.316;2022-10-16T01:55:10;21.25;18.50;10.25
65973;PMS5003;52729;54.906;73.316;2022-10-16T01:58:14;23.00;21.00;10.00
65973;PMS5003;52729;54.906;73.316;2022-10-16T02:01:15;22.50;18.25;9.00
65973;PMS5003;52729;54.906;73.316;2022-10-16T02:07:28;20.67;18.33;10.33
65973;PMS5003;52729;54.906;73.316;2022-10-16T02:10:29;23.50;21.50;11.50
65973;PMS5003;52729;54.906;73.316;2022-10-16T02:16:39;31.00;27.50;17.00
65973;PMS5003;52729;54.906;73.316;2022-10-16T02:19:41;29.25;26.00;16.00
65973;PMS5003;52729;54.906;73.316;2022-10-16T02:22:43;28.50;25.00;16.50
65973;PMS5003;52729;54.906;73.316;2022-10-16T02:25:47;31.00;27.00;16.50
65973;PMS5003;52729;54.906;73.316;2022-10-16T02:28:51;31.00;27.00;17.00
65973;PMS5003;52729;54.906;73.316;2022-10-16T02:31:55;37.50;30.50;20.25
65973;PMS5003;52729;54.906;73.316;2022-10-16T02:34:59;44.00;34.33;22.33
65973;PMS5003;52729;54.906;73.316;2022-10-16T02:38:01;47.00;37.75;25.00
65973;PMS5003;52729;54.906;73.316;2022-10-16T02:41:03;50.50;39.00;25.00
65973;PMS5003;52729;54.906;73.316;2022-10-16T02:44:05;50.75;40.00;26.00
65973;PMS5003;52729;54.906;73.316;2022-10-16T02:47:06;49.00;41.00;26.00
65973;PMS5003;52729;54.906;73.316;2022-10-16T02:50:07;50.25;40.50;26.00
65973;PMS5003;52729;54.906;73.316;2022-10-16T02:53:08;49.00;39.00;25.50
65973;PMS5003;52729;54.906;73.316;2022-10-16T02:56:09;47.00;39.00;25.75
65973;PMS5003;52729;54.906;73.316;2022-10-16T02:59:15;48.00;39.25;26.25
65973;PMS5003;52729;54.906;73.316;2022-10-16T03:02:16;49.25;40.00;26.00
65973;PMS5003;52729;54.906;73.316;2022-10-16T03:05:17;50.67;40.00;26.33
65973;PMS5003;52729;54.906;73.316;2022-10-16T03:08:18;50.50;40.00;26.00
65973;PMS5003;52729;54.906;73.316;2022-10-16T03:11:24;52.00;41.00;26.00
65973;PMS5003;52729;54.906;73.316;2022-10-16T03:14:25;49.75;39.50;26.00
65973;PMS5003;52729;54.906;73.316;2022-10-16T03:17:26;49.33;40.33;27.00
65973;PMS5003;52729;54.906;73.316;2022-10-16T03:20:27;51.50;41.00;26.75
65973;PMS5003;52729;54.906;73.316;2022-10-16T03:23:28;50.67;40.33;27.00
65973;PMS5003;52729;54.906;73.316;2022-10-16T03:26:29;49.50;40.75;27.00
65973;PMS5003;52729;54.906;73.316;2022-10-16T03:29:30;49.00;39.00;25.33
65973;PMS5003;52729;54.906;73.316;2022-10-16T03:32:32;45.50;38.00;24.00
65973;PMS5003;52729;54.906;73.316;2022-10-16T03:35:33;47.00;38.00;24.00
65973;PMS5003;52729;54.906;73.316;2022-10-16T03:38:34;45.00;37.75;24.00
65973;PMS5003;52729;54.906;73.316;2022-10-16T03:41:36;44.50;36.50;24.00
65973;PMS5003;52729;54.906;73.316;2022-10-16T03:44:37;43.00;35.33;23.67
65973;PMS5003;52729;54.906;73.316;2022-10-16T03:47:37;43.00;35.00;23.67
65973;PMS5003;52729;54.906;73.316;2022-10-16T03:50:49;44.00;35.75;23.25
65973;PMS5003;52729;54.906;73.316;2022-10-16T03:53:56;44.50;35.50;23.00
65973;PMS5003;52729;54.906;73.316;2022-10-16T03:56:57;45.00;36.25;24.00
65973;PMS5003;52729;54.906;73.316;2022-10-16T03:59:58;45.50;36.50;24.00
65973;PMS5003;52729;54.906;73.316;2022-10-16T04:02:59;43.00;35.00;23.00
65973;PMS5003;52729;54.906;73.316;2022-10-16T04:06:10;43.50;35.25;23.50
65973;PMS5003;52729;54.906;73.316;2022-10-16T04:09:11;41.25;33.00;22.50
65973;PMS5003;52729;54.906;73.316;2022-10-16T04:12:12;45.00;35.50;23.00
65973;PMS5003;52729;54.906;73.316;2022-10-16T04:15:13;45.25;36.50;24.00
65973;PMS5003;52729;54.906;73.316;2022-10-16T04:18:19;43.75;36.25;23.75
65973;PMS5003;52729;54.906;73.316;2022-10-16T04:21:20;45.00;36.33;23.33
65973;PMS5003;52729;54.906;73.316;2022-10-16T04:24:22;44.00;37.00;22.75
65973;PMS5003;52729;54.906;73.316;2022-10-16T04:27:24;42.50;34.50;22.00
65973;PMS5003;52729;54.906;73.316;2022-10-16T04:30:37;40.25;33.00;22.00
65973;PMS5003;52729;54.906;73.316;2022-10-16T04:33:43;36.75;30.00;20.50
65973;PMS5003;52729;54.906;73.316;2022-10-16T04:36:46;40.00;31.00;20.00
65973;PMS5003;52729;54.906;73.316;2022-10-16T04:39:53;39.00;30.00;20.50
65973;PMS5003;52729;54.906;73.316;2022-10-16T04:43:05;38.00;29.00;20.00
65973;PMS5003;52729;54.906;73.316;2022-10-16T04:46:06;35.00;29.00;20.00
65973;PMS5003;52729;54.906;73.316;2022-10-16T04:49:14;27.00;24.50;17.50
65973;PMS5003;52729;54.906;73.316;2022-10-16T04:52:15;34.25;30.00;19.00
65973;PMS5003;52729;54.906;73.316;2022-10-16T04:55:17;32.25;28.00;18.25
65973;PMS5003;52729;54.906;73.316;2022-10-16T04:58:19;36.00;30.50;20.50
65973;PMS5003;52729;54.906;73.316;2022-10-16T05:01:25;37.00;31.25;20.00
65973;PMS5003;52729;54.906;73.316;2022-10-16T05:04:26;38.75;30.50;21.00
65973;PMS5003;52729;54.906;73.316;2022-10-16T05:07:37;38.50;30.50;20.50
65973;PMS5003;52729;54.906;73.316;2022-10-16T05:10:39;34.50;29.00;19.00
65973;PMS5003;52729;54.906;73.316;2022-10-16T05:13:44;34.00;30.00;19.00
65973;PMS5003;52729;54.906;73.316;2022-10-16T05:16:45;31.33;28.67;19.33
65973;PMS5003;52729;54.906;73.316;2022-10-16T05:19:48;34.00;29.50;19.00
65973;PMS5003;52729;54.906;73.316;2022-10-16T05:22:49;35.50;31.50;20.25
65973;PMS5003;52729;54.906;73.316;2022-10-16T05:25:54;39.25;31.00;21.00
65973;PMS5003;52729;54.906;73.316;2022-10-16T05:28:55;37.00;31.00;20.50
65973;PMS5003;52729;54.906;73.316;2022-10-16T05:31:56;34.00;30.00;19.67
65973;PMS5003;52729;54.906;73.316;2022-10-16T05:35:02;37.75;32.25;21.00
65973;PMS5003;52729;54.906;73.316;2022-10-16T05:38:04;37.00;32.00;21.00
65973;PMS5003;52729;54.906;73.316;2022-10-16T05:41:14;38.00;32.50;21.00
65973;PMS5003;52729;54.906;73.316;2022-10-16T05:44:16;44.00;36.00;23.33
65973;PMS5003;52729;54.906;73.316;2022-10-16T05:47:17;47.50;38.00;25.00
65973;PMS5003;52729;54.906;73.316;2022-10-16T05:50:18;43.00;36.75;24.00
65973;PMS5003;52729;54.906;73.316;2022-10-16T05:53:30;43.25;36.00;23.25
65973;PMS5003;52729;54.906;73.316;2022-10-16T05:56:39;42.00;32.75;21.25
65973;PMS5003;52729;54.906;73.316;2022-10-16T05:59:40;40.00;33.00;21.75
65973;PMS5003;52729;54.906;73.316;2022-10-16T06:02:41;38.75;31.00;20.00
65973;PMS5003;52729;54.906;73.316;2022-10-16T06:05:42;34.00;30.00;20.00
65973;PMS5003;52729;54.906;73.316;2022-10-16T06:08:48;35.50;30.25;19.00
65973;PMS5003;52729;54.906;73.316;2022-10-16T06:11:49;31.00;28.75;18.00
65973;PMS5003;52729;54.906;73.316;2022-10-16T06:14:50;30.25;27.00;17.00
65973;PMS5003;52729;54.906;73.316;2022-10-16T06:17:56;31.00;27.00;17.50
65973;PMS5003;52729;54.906;73.316;2022-10-16T06:20:58;29.50;27.00;18.00
65973;PMS5003;52729;54.906;73.316;2022-10-16T06:24:10;32.00;28.00;18.00
65973;PMS5003;52729;54.906;73.316;2022-10-16T06:27:11;32.00;28.00;18.00
65973;PMS5003;52729;54.906;73.316;2022-10-16T06:30:12;28.25;26.00;17.00
65973;PMS5003;52729;54.906;73.316;2022-10-16T06:33:13;28.00;25.33;16.00
65973;PMS5003;52729;54.906;73.316;2022-10-16T06:36:24;27.25;25.50;16.00
65973;PMS5003;52729;54.906;73.316;2022-10-16T06:39:26;26.00;23.50;13.00
65973;PMS5003;52729;54.906;73.316;2022-10-16T06:42:32;25.50;23.50;13.00
65973;PMS5003;52729;54.906;73.316;2022-10-16T06:45:33;22.00;20.00;10.00
65973;PMS5003;52729;54.906;73.316;2022-10-16T06:48:34;13.00;13.00;6.00
65973;PMS5003;52729;54.906;73.316;2022-10-16T06:51:36;11.00;11.00;4.00
65973;PMS5003;52729;54.906;73.316;2022-10-16T06:54:41;9.00;6.50;3.00
65973;PMS5003;52729;54.906;73.316;2022-10-16T06:57:42;5.00;5.00;1.33
65973;PMS5003;52729;54.906;73.316;2022-10-16T07:00:54;13.00;12.00;7.00
65973;PMS5003;52729;54.906;73.316;2022-10-16T07:04:01;10.00;7.25;3.00
65973;PMS5003;52729;54.906;73.316;2022-10-16T07:07:02;3.75;2.00;1.00
65973;PMS5003;52729;54.906;73.316;2022-10-16T07:10:04;3.00;3.00;1.00
65973;PMS5003;52729;54.906;73.316;2022-10-16T07:13:05;4.00;4.00;0.00
65973;PMS5003;52729;54.906;73.316;2022-10-16T07:16:09;4.00;3.00;0.25
65973;PMS5003;52729;54.906;73.316;2022-10-16T07:19:15;3.25;2.25;0.00
65973;PMS5003;52729;54.906;73.316;2022-10-16T07:22:18;4.00;4.00;1.00
65973;PMS5003;52729;54.906;73.316;2022-10-16T07:25:19;5.00;5.00;1.00
65973;PMS5003;52729;54.906;73.316;2022-10-16T07:28:20;5.50;4.25;2.00
65973;PMS5003;52729;54.906;73.316;2022-10-16T07:31:21;5.50;4.50;2.00
65973;PMS5003;52729;54.906;73.316;2022-10-16T07:34:23;5.00;4.00;1.00
65973;PMS5003;52729;54.906;73.316;2022-10-16T07:37:24;5.00;3.75;1.00
65973;PMS5003;52729;54.906;73.316;2022-10-16T07:40:25;5.00;4.50;0.00
65973;PMS5003;52729;54.906;73.316;2022-10-16T07:43:37;7.00;6.00;1.00
65973;PMS5003;52729;54.906;73.316;2022-10-16T07:46:38;9.00;5.00;2.25
65973;PMS5003;52729;54.906;73.316;2022-10-16T07:49:39;7.75;7.75;4.00
65973;PMS5003;52729;54.906;73.316;2022-10-16T07:52:40;6.00;6.00;2.00
65973;PMS5003;52729;54.906;73.316;2022-10-16T07:55:52;7.00;5.00;2.00
65973;PMS5003;52729;54.906;73.316;2022-10-16T07:58:53;8.75;6.25;4.00
65973;PMS5003;52729;54.906;73.316;2022-10-16T08:01:54;11.50;7.50;2.50
65973;PMS5003;52729;54.906;73.316;2022-10-16T08:04:55;8.25;6.00;2.00
65973;PMS5003;52729;54.906;73.316;2022-10-16T08:07:59;7.75;4.25;2.00
65973;PMS5003;52729;54.906;73.316;2022-10-16T08:11:06;9.25;7.75;2.00
65973;PMS5003;52729;54.906;73.316;2022-10-16T08:14:07;6.00;5.00;3.00
65973;PMS5003;52729;54.906;73.316;2022-10-16T08:17:08;7.50;7.25;2.00
65973;PMS5003;52729;54.906;73.316;2022-10-16T08:20:09;5.00;5.00;1.00
65973;PMS5003;52729;54.906;73.316;2022-10-16T08:23:11;5.75;5.50;2.00
65973;PMS5003;52729;54.906;73.316;2022-10-16T08:26:13;8.75;8.25;2.00
65973;PMS5003;52729;54.906;73.316;2022-10-16T08:29:14;31.50;27.50;17.25
65973;PMS5003;52729;54.906;73.316;2022-10-16T08:32:17;24.25;21.00;13.25
65973;PMS5003;52729;54.906;73.316;2022-10-16T08:35:18;14.67;14.00;5.67
65973;PMS5003;52729;54.906;73.316;2022-10-16T08:38:20;13.00;11.75;4.50
65973;PMS5003;52729;54.906;73.316;2022-10-16T08:50:42;10.00;9.25;4.00
65973;PMS5003;52729;54.906;73.316;2022-10-16T08:54:01;12.75;11.75;7.00
65973;PMS5003;52729;54.906;73.316;2022-10-16T08:57:13;10.75;9.00;4.00
65973;PMS5003;52729;54.906;73.316;2022-10-16T09:00:15;7.00;6.50;3.00
65973;PMS5003;52729;54.906;73.316;2022-10-16T09:13:34;19.00;14.75;9.00
65973;PMS5003;52729;54.906;73.316;2022-10-16T09:19:20;15.75;15.25;6.00
65973;PMS5003;52729;54.906;73.316;2022-10-16T09:22:27;14.00;14.00;5.00
65973;PMS5003;52729;54.906;73.316;2022-10-16T09:25:30;12.00;11.00;5.00
65973;PMS5003;52729;54.906;73.316;2022-10-16T09:28:32;14.00;13.00;7.00
65973;PMS5003;52729;54.906;73.316;2022-10-16T09:31:33;14.75;12.00;5.00
65973;PMS5003;52729;54.906;73.316;2022-10-16T09:34:37;13.50;11.00;5.00
65973;PMS5003;52729;54.906;73.316;2022-10-16T09:37:42;13.00;10.50;5.75
65973;PMS5003;52729;54.906;73.316;2022-10-16T09:40:44;12.00;10.00;5.00
65973;PMS5003;52729;54.906;73.316;2022-10-16T09:43:57;9.25;8.50;5.25
65973;PMS5003;52729;54.906;73.316;2022-10-16T09:47:00;13.25;10.00;6.00
65973;PMS5003;52729;54.906;73.316;2022-10-16T09:50:03;16.00;11.00;5.00
65973;PMS5003;52729;54.906;73.316;2022-10-16T09:53:13;15.00;11.75;6.00
65973;PMS5003;52729;54.906;73.316;2022-10-16T09:56:24;17.25;16.00;7.00
65973;PMS5003;52729;54.906;73.316;2022-10-16T09:59:25;18.75;18.75;7.75
65973;PMS5003;52729;54.906;73.316;2022-10-16T10:02:35;15.75;15.25;7.00
65973;PMS5003;52729;54.906;73.316;2022-10-16T10:05:38;15.00;15.00;7.00
65973;PMS5003;52729;54.906;73.316;2022-10-16T10:08:40;13.25;13.00;6.50
65973;PMS5003;52729;54.906;73.316;2022-10-16T10:11:52;12.00;10.00;4.00
65973;PMS5003;52729;54.906;73.316;2022-10-16T10:15:04;13.25;9.75;4.75
65973;PMS5003;52729;54.906;73.316;2022-10-16T10:18:19;9.50;7.50;4.00
65973;PMS5003;52729;54.906;73.316;2022-10-16T10:21:20;11.00;8.00;5.00
65973;PMS5003;52729;54.906;73.316;2022-10-16T10:24:31;8.50;7.00;4.25
65973;PMS5003;52729;54.906;73.316;2022-10-16T10:27:36;18.50;16.25;12.00
65973;PMS5003;52729;54.906;73.316;2022-10-16T10:33:44;27.00;23.50;14.00
65973;PMS5003;52729;54.906;73.316;2022-10-16T10:37:00;26.00;22.50;13.00
65973;PMS5003;52729;54.906;73.316;2022-10-16T10:43:17;21.00;19.50;8.75
65973;PMS5003;52729;54.906;73.316;2022-10-16T10:46:35;21.25;21.00;10.50
65973;PMS5003;52729;54.906;73.316;2022-10-16T11:08:39;16.00;15.00;6.00
65973;PMS5003;52729;54.906;73.316;2022-10-16T11:11:43;16.50;14.00;6.00
65973;PMS5003;52729;54.906;73.316;2022-10-16T11:15:04;17.00;14.00;6.00
65973;PMS5003;52729;54.906;73.316;2022-10-16T11:18:16;20.00;17.25;8.00
65973;PMS5003;52729;54.906;73.316;2022-10-16T11:21:19;18.25;16.25;7.75
65973;PMS5003;52729;54.906;73.316;2022-10-16T11:27:54;30.25;24.75;14.00
65973;PMS5003;52729;54.906;73.316;2022-10-16T11:31:40;35.00;27.00;18.00
65973;PMS5003;52729;54.906;73.316;2022-10-16T11:34:27;35.50;28.25;18.00
65973;PMS5003;52729;54.906;73.316;2022-10-16T11:37:31;37.00;31.50;18.75
65973;PMS5003;52729;54.906;73.316;2022-10-16T11:40:33;41.50;32.75;21.00
65973;PMS5003;52729;54.906;73.316;2022-10-16T11:43:40;42.75;35.25;21.00
65973;PMS5003;52729;54.906;73.316;2022-10-16T11:46:46;42.00;34.50;21.00
65973;PMS5003;52729;54.906;73.316;2022-10-16T11:49:53;39.00;31.00;19.50
65973;PMS5003;52729;54.906;73.316;2022-10-16T11:56:24;43.00;34.00;21.25
65973;PMS5003;52729;54.906;73.316;2022-10-16T11:59:41;42.75;34.00;21.00
65973;PMS5003;52729;54.906;73.316;2022-10-16T12:02:56;43.75;36.00;22.75
65973;PMS5003;52729;54.906;73.316;2022-10-16T12:09:03;51.25;42.00;25.50
65973;PMS5003;52729;54.906;73.316;2022-10-16T12:12:22;44.50;37.00;23.00
65973;PMS5003;52729;54.906;73.316;2022-10-16T12:15:34;39.00;32.00;20.00
65973;PMS5003;52729;54.906;73.316;2022-10-16T12:18:35;39.75;33.25;20.50
65973;PMS5003;52729;54.906;73.316;2022-10-16T12:21:46;36.00;31.25;20.00
65973;PMS5003;52729;54.906;73.316;2022-10-16T12:24:50;33.00;28.00;18.00
65973;PMS5003;52729;54.906;73.316;2022-10-16T12:31:14;30.50;27.00;17.00
65973;PMS5003;52729;54.906;73.316;2022-10-16T12:34:29;27.00;25.00;15.00
65973;PMS5003;52729;54.906;73.316;2022-10-16T12:37:42;22.00;19.00;14.00
65973;PMS5003;52729;54.906;73.316;2022-10-16T12:40:44;24.25;19.50;14.00
65973;PMS5003;52729;54.906;73.316;2022-10-16T12:43:46;25.00;21.00;13.00
65973;PMS5003;52729;54.906;73.316;2022-10-16T12:46:48;27.25;22.75;13.00
65973;PMS5003;52729;54.906;73.316;2022-10-16T12:49:52;24.00;21.00;11.00
65973;PMS5003;52729;54.906;73.316;2022-10-16T12:52:53;18.50;16.50;8.50
65973;PMS5003;52729;54.906;73.316;2022-10-16T12:56:03;18.75;16.75;6.00
65973;PMS5003;52729;54.906;73.316;2022-10-16T13:02:39;18.00;16.00;7.00
65973;PMS5003;52729;54.906;73.316;2022-10-16T13:18:52;20.00;20.00;11.00
65973;PMS5003;52729;54.906;73.316;2022-10-16T13:28:05;42.75;34.00;21.00
65973;PMS5003;52729;54.906;73.316;2022-10-16T13:31:13;47.75;37.75;23.50
65973;PMS5003;52729;54.906;73.316;2022-10-16T13:34:17;47.25;38.25;24.00
65973;PMS5003;52729;54.906;73.316;2022-10-16T13:37:19;41.50;33.50;21.50
65973;PMS5003;52729;54.906;73.316;2022-10-16T13:40:22;45.75;37.25;23.00
65973;PMS5003;52729;54.906;73.316;2022-10-16T13:43:26;46.00;38.00;24.50
65973;PMS5003;52729;54.906;73.316;2022-10-16T13:46:28;44.00;36.50;23.50
65973;PMS5003;52729;54.906;73.316;2022-10-16T13:49:44;47.00;38.00;25.00
65973;PMS5003;52729;54.906;73.316;2022-10-16T13:52:46;47.50;37.00;24.00
65973;PMS5003;52729;54.906;73.316;2022-10-16T13:55:47;47.00;37.50;23.00
65973;PMS5003;52729;54.906;73.316;2022-10-16T13:59:01;43.00;34.75;22.00
65973;PMS5003;52729;54.906;73.316;2022-10-16T14:02:05;42.50;34.00;22.00
65973;PMS5003;52729;54.906;73.316;2022-10-16T14:05:09;41.75;32.75;21.50
65973;PMS5003;52729;54.906;73.316;2022-10-16T14:08:14;40.25;33.00;21.00
65973;PMS5003;52729;54.906;73.316;2022-10-16T14:11:20;46.00;36.00;21.75
65973;PMS5003;52729;54.906;73.316;2022-10-16T14:14:22;44.00;33.50;20.50
65973;PMS5003;52729;54.906;73.316;2022-10-16T14:17:48;45.50;36.25;21.50
65973;PMS5003;52729;54.906;73.316;2022-10-16T14:20:48;42.50;34.00;21.00
65973;PMS5003;52729;54.906;73.316;2022-10-16T14:23:49;42.00;34.00;21.50
65973;PMS5003;52729;54.906;73.316;2022-10-16T14:26:50;42.00;34.00;21.00
65973;PMS5003;52729;54.906;73.316;2022-10-16T14:33:23;39.00;32.75;19.00
65973;PMS5003;52729;54.906;73.316;2022-10-16T14:36:26;39.50;32.75;20.25
65973;PMS5003;52729;54.906;73.316;2022-10-16T14:39:27;38.00;31.50;20.00
65973;PMS5003;52729;54.906;73.316;2022-10-16T14:42:33;39.25;31.50;19.50
65973;PMS5003;52729;54.906;73.316;2022-10-16T14:45:35;43.75;35.00;22.00
65973;PMS5003;52729;54.906;73.316;2022-10-16T14:48:36;44.00;35.50;22.50
65973;PMS5003;52729;54.906;73.316;2022-10-16T14:51:45;43.50;35.25;22.00
65973;PMS5003;52729;54.906;73.316;2022-10-16T14:54:50;43.50;35.00;21.75
65973;PMS5003;52729;54.906;73.316;2022-10-16T14:57:51;44.00;36.00;23.25
65973;PMS5003;52729;54.906;73.316;2022-10-16T15:00:52;46.00;37.25;24.00
65973;PMS5003;52729;54.906;73.316;2022-10-16T15:03:53;45.00;37.00;23.25
65973;PMS5003;52729;54.906;73.316;2022-10-16T15:06:55;44.75;37.50;24.00
65973;PMS5003;52729;54.906;73.316;2022-10-16T15:10:07;40.25;33.50;20.50
65973;PMS5003;52729;54.906;73.316;2022-10-16T15:13:11;44.25;35.00;22.50
65973;PMS5003;52729;54.906;73.316;2022-10-16T15:16:14;48.00;37.75;24.00
65973;PMS5003;52729;54.906;73.316;2022-10-16T15:19:15;48.00;38.25;24.00
65973;PMS5003;52729;54.906;73.316;2022-10-16T15:22:16;53.33;41.33;25.00
65973;PMS5003;52729;54.906;73.316;2022-10-16T15:25:29;56.75;44.00;27.75
65973;PMS5003;52729;54.906;73.316;2022-10-16T15:28:35;57.75;44.25;28.50
65973;PMS5003;52729;54.906;73.316;2022-10-16T15:31:36;58.50;45.75;29.50
65973;PMS5003;52729;54.906;73.316;2022-10-16T15:34:38;56.00;44.00;28.50
65973;PMS5003;52729;54.906;73.316;2022-10-16T15:37:45;51.00;40.00;25.00
65973;PMS5003;52729;54.906;73.316;2022-10-16T15:40:47;46.00;36.75;23.00
65973;PMS5003;52729;54.906;73.316;2022-10-16T15:43:58;47.00;38.00;23.00
65973;PMS5003;52729;54.906;73.316;2022-10-16T15:47:00;46.00;38.00;23.75
65973;PMS5003;52729;54.906;73.316;2022-10-16T15:50:02;44.50;36.00;23.00
65973;PMS5003;52729;54.906;73.316;2022-10-16T15:53:13;43.00;35.00;23.00
65973;PMS5003;52729;54.906;73.316;2022-10-16T15:56:14;40.00;33.00;22.00
65973;PMS5003;52729;54.906;73.316;2022-10-16T15:59:18;41.00;32.00;20.50
65973;PMS5003;52729;54.906;73.316;2022-10-16T16:02:19;36.00;30.00;19.00
65973;PMS5003;52729;54.906;73.316;2022-10-16T16:05:21;38.50;30.00;19.25
65973;PMS5003;52729;54.906;73.316;2022-10-16T16:08:27;38.25;31.00;19.50
65973;PMS5003;52729;54.906;73.316;2022-10-16T16:11:29;35.00;30.00;18.00
65973;PMS5003;52729;54.906;73.316;2022-10-16T16:14:32;34.75;29.50;17.50
65973;PMS5003;52729;54.906;73.316;2022-10-16T16:17:43;32.25;27.00;18.00
65973;PMS5003;52729;54.906;73.316;2022-10-16T16:20:44;26.50;25.00;17.00
65973;PMS5003;52729;54.906;73.316;2022-10-16T16:23:45;25.33;23.00;16.00
65973;PMS5003;52729;54.906;73.316;2022-10-16T16:26:47;24.00;22.00;15.00
65973;PMS5003;52729;54.906;73.316;2022-10-16T16:29:47;23.00;20.33;14.00
65973;PMS5003;52729;54.906;73.316;2022-10-16T16:32:48;22.00;19.33;11.00
65973;PMS5003;52729;54.906;73.316;2022-10-16T16:35:50;20.25;19.00;10.00
65973;PMS5003;52729;54.906;73.316;2022-10-16T16:38:51;21.75;21.50;9.75
65973;PMS5003;52729;54.906;73.316;2022-10-16T16:41:52;24.50;20.75;10.00
65973;PMS5003;52729;54.906;73.316;2022-10-16T16:44:53;28.50;22.75;13.75
65973;PMS5003;52729;54.906;73.316;2022-10-16T16:48:04;27.25;23.25;13.50
65973;PMS5003;52729;54.906;73.316;2022-10-16T16:51:10;28.50;26.00;15.25
65973;PMS5003;52729;54.906;73.316;2022-10-16T16:54:16;29.00;25.00;16.00
65973;PMS5003;52729;54.906;73.316;2022-10-16T16:57:18;26.25;23.25;15.00
65973;PMS5003;52729;54.906;73.316;2022-10-16T17:00:19;25.00;24.00;15.00
65973;PMS5003;52729;54.906;73.316;2022-10-16T17:03:20;23.00;22.00;14.00
65973;PMS5003;52729;54.906;73.316;2022-10-16T17:06:23;24.50;24.00;14.00
65973;PMS5003;52729;54.906;73.316;2022-10-16T17:09:25;25.00;23.50;13.00
65973;PMS5003;52729;54.906;73.316;2022-10-16T17:12:26;25.75;24.00;15.00
65973;PMS5003;52729;54.906;73.316;2022-10-16T17:15:34;26.50;23.00;14.50
65973;PMS5003;52729;54.906;73.316;2022-10-16T17:18:35;23.25;20.50;12.25
65973;PMS5003;52729;54.906;73.316;2022-10-16T17:21:36;23.00;21.00;11.00
65973;PMS5003;52729;54.906;73.316;2022-10-16T17:24:37;21.50;19.00;11.00
65973;PMS5003;52729;54.906;73.316;2022-10-16T17:27:38;23.00;18.75;8.50
65973;PMS5003;52729;54.906;73.316;2022-10-16T17:30:40;26.00;21.33;12.67
65973;PMS5003;52729;54.906;73.316;2022-10-16T17:33:46;25.00;22.00;14.00
65973;PMS5003;52729;54.906;73.316;2022-10-16T17:36:57;49.00;38.00;23.25
65973;PMS5003;52729;54.906;73.316;2022-10-16T17:39:58;44.50;34.75;21.25
65973;PMS5003;52729;54.906;73.316;2022-10-16T17:43:00;29.75;27.00;17.00
65973;PMS5003;52729;54.906;73.316;2022-10-16T17:46:01;24.50;23.25;15.00
65973;PMS5003;52729;54.906;73.316;2022-10-16T17:49:08;23.00;20.50;12.00
65973;PMS5003;52729;54.906;73.316;2022-10-16T17:52:09;22.00;19.00;10.50
65973;PMS5003;52729;54.906;73.316;2022-10-16T17:55:16;21.50;20.00;9.50
65973;PMS5003;52729;54.906;73.316;2022-10-16T17:58:26;19.00;19.00;7.25
65973;PMS5003;52729;54.906;73.316;2022-10-16T18:01:32;17.33;17.33;6.00
65973;PMS5003;52729;54.906;73.316;2022-10-16T18:04:33;17.75;17.00;6.50
65973;PMS5003;52729;54.906;73.316;2022-10-16T18:07:34;19.67;18.00;8.00
65973;PMS5003;52729;54.906;73.316;2022-10-16T18:10:35;19.50;18.00;7.75
65973;PMS5003;52729;54.906;73.316;2022-10-16T18:13:36;18.50;18.50;10.25
65973;PMS5003;52729;54.906;73.316;2022-10-16T18:16:37;19.00;18.25;7.00
65973;PMS5003;52729;54.906;73.316;2022-10-16T18:19:39;15.00;13.00;5.00
65973;PMS5003;52729;54.906;73.316;2022-10-16T18:22:40;11.00;8.50;4.00
65973;PMS5003;52729;54.906;73.316;2022-10-16T18:25:48;8.00;5.00;3.00
65973;PMS5003;52729;54.906;73.316;2022-10-16T18:28:53;6.00;5.00;2.00
65973;PMS5003;52729;54.906;73.316;2022-10-16T18:31:54;6.00;6.00;3.00
65973;PMS5003;52729;54.906;73.316;2022-10-16T18:34:55;7.50;7.50;1.25
65973;PMS5003;52729;54.906;73.316;2022-10-16T18:37:56;9.00;8.33;4.00
65973;PMS5003;52729;54.906;73.316;2022-10-16T18:41:00;14.00;11.25;5.00
65973;PMS5003;52729;54.906;73.316;2022-10-16T18:44:11;15.00;12.00;5.00